Time;durP1;ratioP1;P1;durP2;ratioP2;P2;SDS_P1;SDS_P2;PMS_P1;PMS_P2;Temp;Humidity;BMP_temperature;BMP_pressure;BME280_temperature;BME280_humidity;BME280_pressure;Samples;Min_cycle;Max_cycle;Signal;HPM_P1;HPM_P2
2021/12/25 00:01:40;;;;;;;1.70;0.30;;;;;;;1.43;65.84;100710.41;4914840;28;98311;-49
2021/12/25 00:04:07;;;;;;;0.93;0.50;;;;;;;1.39;65.67;100726.78;4918060;28;97379;-49
2021/12/25 00:06:34;;;;;;;0.50;0.40;;;;;;;1.40;65.74;100727.53;4900158;28;97727;-50
2021/12/25 00:08:59;;;;;;;0.40;0.30;;;;;;;1.40;65.46;100722.88;4922298;28;96923;-49
2021/12/25 00:11:24;;;;;;;1.70;0.47;;;;;;;1.35;65.79;100726.13;4922571;28;96973;-50
2021/12/25 00:13:50;;;;;;;0.53;0.40;;;;;;;1.32;65.63;100726.19;4919042;28;97638;-49
2021/12/25 00:16:15;;;;;;;0.50;0.40;;;;;;;1.32;65.85;100731.63;4920372;28;105242;-50
2021/12/25 00:18:40;;;;;;;1.93;0.40;;;;;;;1.29;65.29;100757.59;4921374;28;109477;-50
2021/12/25 00:21:07;;;;;;;1.07;0.40;;;;;;;1.21;65.01;100736.53;4922305;28;96739;-51
2021/12/25 00:23:33;;;;;;;0.40;0.40;;;;;;;1.18;65.53;100738.16;4917550;28;97373;-50
2021/12/25 00:26:04;;;;;;;0.50;0.50;;;;;;;1.13;65.33;100741.41;4921138;28;97658;-50
2021/12/25 00:31:07;;;;;;;0.40;0.30;;;;;;;1.07;65.01;100753.16;4923707;28;96838;-49
2021/12/25 00:36:03;;;;;;;0.40;0.30;;;;;;;0.93;64.91;100762.38;4921052;28;97911;-49
2021/12/25 00:38:29;;;;;;;0.40;0.40;;;;;;;0.89;65.13;100769.84;4921430;28;97140;-50
2021/12/25 00:40:54;;;;;;;0.43;0.33;;;;;;;0.91;65.60;100772.13;4919573;28;96850;-50
2021/12/25 00:43:19;;;;;;;0.40;0.30;;;;;;;0.92;65.26;100781.78;4919379;28;97322;-50
2021/12/25 00:45:44;;;;;;;0.37;0.30;;;;;;;0.89;65.29;100774.50;4923467;28;107472;-49
2021/12/25 00:48:10;;;;;;;0.90;0.30;;;;;;;0.88;65.11;100789.19;4921657;28;111972;-50
2021/12/25 00:50:35;;;;;;;2.10;0.63;;;;;;;0.87;65.03;100787.69;4919998;28;97317;-49
2021/12/25 00:53:00;;;;;;;0.50;0.30;;;;;;;0.85;65.05;100792.78;4919880;28;118711;-51
2021/12/25 00:55:26;;;;;;;0.70;0.40;;;;;;;0.75;64.62;100791.81;4919903;28;128959;-49
2021/12/25 00:57:52;;;;;;;0.70;0.40;;;;;;;0.73;65.38;100800.38;4921076;28;97311;-50
2021/12/25 01:00:18;;;;;;;0.50;0.40;;;;;;;0.73;65.02;100807.72;4919927;28;96968;-51
2021/12/25 01:02:46;;;;;;;0.57;0.30;;;;;;;0.67;65.09;100806.72;4919962;28;98602;-50
2021/12/25 01:05:12;;;;;;;0.50;0.30;;;;;;;0.65;65.24;100804.44;4921440;28;97184;-50
2021/12/25 01:07:38;;;;;;;0.70;0.40;;;;;;;0.63;65.41;100806.03;4921240;28;97003;-51
2021/12/25 01:10:08;;;;;;;0.40;0.30;;;;;;;0.59;64.91;100813.47;4922590;28;96945;-50
2021/12/25 01:12:50;;;;;;;0.60;0.37;;;;;;;0.49;65.08;100811.72;4921672;28;97547;-51
2021/12/25 01:15:19;;;;;;;0.50;0.43;;;;;;;0.45;65.04;100816.47;4920622;28;103020;-51
2021/12/25 01:18:09;;;;;;;0.40;0.40;;;;;;;0.37;64.64;100817.81;4903727;28;97031;-51
2021/12/25 01:21:06;;;;;;;1.13;0.40;;;;;;;0.27;64.63;100824.19;4904162;28;96947;-50
2021/12/25 01:31:13;;;;;;;0.50;0.40;;;;;;;0.23;64.94;100831.59;4906351;28;96934;-51
2021/12/25 01:49:37;;;;;;;0.40;0.30;;;;;;;-0.09;64.21;100849.19;4924363;28;97958;-51
2021/12/25 01:52:04;;;;;;;1.07;0.40;;;;;;;-0.13;64.99;100853.91;4923423;28;97691;-50
2021/12/25 01:54:29;;;;;;;0.40;0.30;;;;;;;-0.14;64.81;100855.09;4924060;28;97912;-51
2021/12/25 01:56:55;;;;;;;0.40;0.30;;;;;;;-0.10;65.16;100852.31;4925686;28;109292;-51
2021/12/25 01:59:20;;;;;;;3.27;0.40;;;;;;;-0.10;65.26;100858.50;4924133;28;97127;-50
2021/12/25 02:01:46;;;;;;;0.40;0.30;;;;;;;-0.15;64.53;100850.84;4919668;28;96934;-51
2021/12/25 02:04:11;;;;;;;0.60;0.40;;;;;;;-0.12;64.91;100857.38;4919371;28;97487;-49
2021/12/25 02:06:37;;;;;;;0.40;0.40;;;;;;;-0.12;65.24;100851.97;4921569;28;97838;-49
2021/12/25 02:09:03;;;;;;;3.40;0.40;;;;;;;-0.15;64.80;100855.50;4921398;28;97317;-49
2021/12/25 02:11:29;;;;;;;0.40;0.30;;;;;;;-0.21;64.91;100857.94;4923645;28;96844;-50
2021/12/25 02:13:55;;;;;;;0.40;0.30;;;;;;;-0.27;65.03;100862.28;4922231;28;96904;-49
2021/12/25 02:16:24;;;;;;;0.50;0.40;;;;;;;-0.31;65.01;100858.88;4924587;28;97572;-49
2021/12/25 02:19:13;;;;;;;0.90;0.50;;;;;;;-0.39;64.94;100854.75;4924493;28;97349;-49
2021/12/25 02:21:40;;;;;;;0.40;0.30;;;;;;;-0.43;64.91;100859.47;4923801;28;97179;-49
2021/12/25 02:24:09;;;;;;;2.23;0.50;;;;;;;-0.47;65.16;100853.38;4920232;28;97912;-50
2021/12/25 02:26:37;;;;;;;0.40;0.40;;;;;;;-0.49;64.80;100857.66;4917857;28;97118;-49
2021/12/25 02:29:02;;;;;;;0.40;0.30;;;;;;;-0.53;64.89;100856.94;4921371;28;96936;-49
2021/12/25 02:31:28;;;;;;;2.40;0.30;;;;;;;-0.58;64.77;100854.69;4924170;28;98316;-49
2021/12/25 02:33:53;;;;;;;0.70;0.33;;;;;;;-0.62;64.88;100862.88;4922420;28;97842;-49
2021/12/25 02:36:18;;;;;;;1.33;0.63;;;;;;;-0.65;64.93;100854.81;4921879;28;97804;-50
2021/12/25 02:38:45;;;;;;;0.40;0.30;;;;;;;-0.72;64.68;100854.94;4922509;28;97131;-50
2021/12/25 02:41:11;;;;;;;8.03;0.43;;;;;;;-0.77;64.92;100848.84;4923797;28;97420;-49
2021/12/25 02:43:37;;;;;;;0.40;0.40;;;;;;;-0.76;65.22;100861.16;4920402;28;97700;-50
2021/12/25 02:46:04;;;;;;;0.40;0.40;;;;;;;-0.76;65.42;100871.19;4921878;28;97225;-49
2021/12/25 02:48:32;;;;;;;0.63;0.40;;;;;;;-0.80;64.92;100879.34;4922297;28;97553;-49
2021/12/25 02:50:58;;;;;;;1.50;0.50;;;;;;;-0.84;65.05;100867.06;4923814;28;97598;-49
2021/12/25 02:53:24;;;;;;;0.80;0.30;;;;;;;-0.82;65.00;100873.59;4920197;28;98524;-49
2021/12/25 02:55:49;;;;;;;0.60;0.33;;;;;;;-0.81;65.22;100860.88;4923789;28;100754;-49
2021/12/25 02:58:19;;;;;;;0.40;0.40;;;;;;;-0.86;65.19;100870.19;4923875;28;97229;-49
2021/12/25 03:00:46;;;;;;;1.13;0.40;;;;;;;-0.84;65.27;100873.25;4922657;28;97230;-50
2021/12/25 03:03:11;;;;;;;0.50;0.50;;;;;;;-0.84;64.98;100875.19;4924010;28;123253;-49
2021/12/25 03:05:37;;;;;;;0.40;0.30;;;;;;;-0.86;65.08;100872.13;4920229;28;97455;-49
2021/12/25 03:08:05;;;;;;;1.73;0.43;;;;;;;-0.86;64.98;100869.44;4920890;28;97069;-50
2021/12/25 03:10:33;;;;;;;0.97;0.40;;;;;;;-0.90;64.95;100872.19;4920257;28;97253;-49
2021/12/25 03:13:19;;;;;;;0.90;0.40;;;;;;;-0.92;64.92;100863.72;4921981;28;99456;-49
2021/12/25 03:15:46;;;;;;;0.70;0.50;;;;;;;-0.92;64.76;100871.81;4916630;28;100288;-49
2021/12/25 03:18:13;;;;;;;0.57;0.30;;;;;;;-0.99;64.46;100871.16;4919848;28;97115;-49
2021/12/25 03:20:44;;;;;;;0.43;0.30;;;;;;;-1.05;64.92;100870.84;4922669;28;98738;-50
2021/12/25 03:23:14;;;;;;;0.37;0.30;;;;;;;-1.07;64.93;100880.53;4922436;28;97455;-49
2021/12/25 03:25:41;;;;;;;0.40;0.30;;;;;;;-1.11;64.95;100882.50;4923126;28;98901;-49
2021/12/25 03:28:06;;;;;;;0.40;0.30;;;;;;;-1.15;64.73;100885.25;4920472;28;97428;-49
2021/12/25 03:30:36;;;;;;;2.10;0.50;;;;;;;-1.18;65.23;100888.03;4923937;28;96936;-50
2021/12/25 03:33:03;;;;;;;0.37;0.30;;;;;;;-1.15;65.14;100889.88;4922664;28;97391;-50
2021/12/25 03:35:28;;;;;;;0.30;0.30;;;;;;;-1.11;64.89;100887.91;4920985;28;96904;-49
2021/12/25 03:37:54;;;;;;;0.60;0.30;;;;;;;-1.10;64.83;100897.53;4916161;28;113122;-49
2021/12/25 03:40:19;;;;;;;0.40;0.30;;;;;;;-1.07;65.33;100904.84;4919024;28;111868;-49
2021/12/25 03:42:45;;;;;;;0.30;0.30;;;;;;;-1.07;65.14;100902.13;4924895;28;114514;-50
2021/12/25 03:45:10;;;;;;;0.93;0.40;;;;;;;-1.05;65.12;100897.09;4921506;28;97051;-49
2021/12/25 03:47:38;;;;;;;0.30;0.30;;;;;;;-1.03;65.02;100908.25;4920419;28;97013;-49
2021/12/25 03:58:23;;;;;;;0.93;0.33;;;;;;;-1.09;64.44;100913.31;4920929;28;100402;-49
2021/12/25 04:00:49;;;;;;;0.50;0.40;;;;;;;-1.15;64.37;100906.84;4922499;28;97318;-50
2021/12/25 04:03:24;;;;;;;2.20;0.40;;;;;;;-1.16;64.54;100907.28;4920837;28;97316;-49
2021/12/25 04:05:49;;;;;;;0.40;0.30;;;;;;;-1.17;64.75;100913.81;4916052;28;97361;-49
2021/12/25 04:08:19;;;;;;;2.47;0.40;;;;;;;-1.19;64.43;100908.84;4920077;28;97012;-50
2021/12/25 04:10:46;;;;;;;1.57;0.30;;;;;;;-1.19;64.74;100914.25;4922273;28;98268;-50
2021/12/25 04:13:16;;;;;;;0.30;0.30;;;;;;;-1.14;64.88;100918.41;4921977;28;97699;-50
2021/12/25 04:15:42;;;;;;;0.90;0.40;;;;;;;-1.13;64.61;100918.00;4919896;28;97160;-50
2021/12/25 04:18:08;;;;;;;0.50;0.30;;;;;;;-1.16;64.48;100916.13;4924481;28;96906;-49
2021/12/25 04:20:34;;;;;;;0.40;0.40;;;;;;;-1.20;64.37;100920.03;4920467;28;97202;-49
2021/12/25 04:23:05;;;;;;;0.50;0.37;;;;;;;-1.26;64.12;100918.94;4922334;28;97719;-49
2021/12/25 04:25:33;;;;;;;0.40;0.30;;;;;;;-1.31;64.24;100920.16;4922066;28;101763;-49
2021/12/25 04:28:06;;;;;;;0.40;0.30;;;;;;;-1.40;64.19;100919.13;4918657;28;99916;-49
2021/12/25 05:03:02;;;;;;;0.50;0.40;;;;;;;-1.79;64.58;100922.28;4917365;28;97281;-52
2021/12/25 05:05:29;;;;;;;1.23;0.30;;;;;;;-1.83;64.19;100919.59;4917912;28;97449;-49
2021/12/25 05:07:54;;;;;;;0.40;0.30;;;;;;;-1.88;64.49;100920.03;4921119;28;96949;-49
2021/12/25 05:10:20;;;;;;;2.20;0.60;;;;;;;-1.94;64.48;100915.47;4919718;28;97268;-50
2021/12/25 05:12:45;;;;;;;2.20;0.30;;;;;;;-1.99;64.43;100916.69;4921899;28;97029;-49
2021/12/25 05:15:10;;;;;;;0.53;0.40;;;;;;;-2.02;64.43;100919.41;4918330;28;97247;-49
2021/12/25 05:17:36;;;;;;;2.63;0.40;;;;;;;-2.01;64.80;100918.25;4920053;28;97509;-50
2021/12/25 05:20:03;;;;;;;0.40;0.30;;;;;;;-2.02;64.56;100922.88;4916581;28;97108;-50
2021/12/25 05:22:29;;;;;;;0.40;0.40;;;;;;;-2.02;64.70;100922.88;4923737;28;96978;-49
2021/12/25 05:24:54;;;;;;;1.63;0.43;;;;;;;-2.03;64.73;100929.41;4922172;28;98504;-50
2021/12/25 05:27:20;;;;;;;0.40;0.30;;;;;;;-2.03;64.44;100924.03;4921743;28;102262;-50
2021/12/25 05:29:48;;;;;;;0.60;0.40;;;;;;;-2.07;64.45;100931.38;4917365;28;97208;-50
2021/12/25 05:32:16;;;;;;;0.50;0.30;;;;;;;-2.07;64.48;100931.38;4918955;28;97358;-50
2021/12/25 05:34:41;;;;;;;0.50;0.30;;;;;;;-2.08;64.28;100942.56;4919482;28;97435;-51
2021/12/25 05:37:07;;;;;;;0.60;0.30;;;;;;;-2.11;64.55;100937.97;4920007;28;97196;-51
2021/12/25 05:39:33;;;;;;;0.40;0.33;;;;;;;-2.12;64.71;100933.75;4915810;28;97117;-50
2021/12/25 05:41:59;;;;;;;0.40;0.40;;;;;;;-2.15;64.65;100934.53;4921981;28;97151;-50
2021/12/25 05:44:25;;;;;;;1.63;0.30;;;;;;;-2.14;64.53;100939.53;4918162;28;97284;-50
2021/12/25 05:46:51;;;;;;;0.40;0.30;;;;;;;-2.13;64.75;100943.78;4921978;28;97195;-49
2021/12/25 05:49:17;;;;;;;0.50;0.50;;;;;;;-2.14;64.40;100949.56;4918521;28;97076;-51
2021/12/25 05:51:42;;;;;;;1.83;0.40;;;;;;;-2.14;64.68;100946.88;4920355;28;102318;-50
2021/12/25 05:54:07;;;;;;;1.77;0.40;;;;;;;-2.14;64.36;100944.19;4919512;28;122462;-51
2021/12/25 05:56:33;;;;;;;0.40;0.30;;;;;;;-2.13;64.33;100953.78;4920031;28;97191;-51
2021/12/25 05:58:58;;;;;;;0.50;0.30;;;;;;;-2.18;64.43;100946.13;4916662;28;98528;-56
2021/12/25 06:01:23;;;;;;;0.83;0.30;;;;;;;-2.19;64.32;100953.44;4920194;28;97413;-51
2021/12/25 06:03:49;;;;;;;0.93;0.30;;;;;;;-2.22;64.18;100954.22;4917528;28;97549;-51
2021/12/25 06:06:14;;;;;;;0.40;0.30;;;;;;;-2.25;64.17;100957.75;4920698;28;102570;-50
2021/12/25 06:08:40;;;;;;;0.40;0.30;;;;;;;-2.31;64.28;100959.31;4917540;28;97364;-49
2021/12/25 06:11:05;;;;;;;3.03;0.47;;;;;;;-2.36;64.22;100967.81;4919596;28;105328;-51
2021/12/25 06:13:31;;;;;;;0.47;0.37;;;;;;;-2.35;64.44;100974.72;4921894;28;97664;-51
2021/12/25 06:15:57;;;;;;;0.47;0.30;;;;;;;-2.38;64.18;100972.84;4919889;28;97519;-51
2021/12/25 06:18:22;;;;;;;0.40;0.33;;;;;;;-2.41;64.49;100976.31;4919013;28;97497;-51
2021/12/25 06:20:48;;;;;;;0.40;0.30;;;;;;;-2.44;64.57;100982.50;4918270;28;108443;-53
2021/12/25 06:23:13;;;;;;;0.47;0.40;;;;;;;-2.47;64.38;100981.34;4922537;28;97475;-52
2021/12/25 06:25:38;;;;;;;0.70;0.40;;;;;;;-2.48;64.63;100984.44;4925790;28;96778;-51
2021/12/25 06:28:04;;;;;;;1.77;0.30;;;;;;;-2.48;64.33;100989.84;4922332;28;113653;-51
2021/12/25 06:30:29;;;;;;;0.40;0.30;;;;;;;-2.50;64.52;100992.16;4925135;28;96988;-51
2021/12/25 06:32:55;;;;;;;2.00;0.30;;;;;;;-2.54;64.68;100994.09;4916959;28;109320;-51
2021/12/25 06:35:20;;;;;;;0.60;0.30;;;;;;;-2.60;64.28;100996.44;4924634;28;96900;-49
2021/12/25 06:37:46;;;;;;;1.87;0.50;;;;;;;-2.63;64.36;101020.69;4924884;28;97081;-52
2021/12/25 06:40:19;;;;;;;0.37;0.33;;;;;;;-2.64;64.62;101001.06;4923674;28;96979;-51
2021/12/25 06:42:46;;;;;;;1.40;0.63;;;;;;;-2.61;64.77;100994.16;4922899;28;97341;-51
2021/12/25 06:45:12;;;;;;;1.20;0.70;;;;;;;-2.61;64.68;100994.91;4920016;28;98557;-49
2021/12/25 06:47:38;;;;;;;2.20;0.70;;;;;;;-2.62;64.66;100998.75;4922229;28;97142;-52
2021/12/25 06:50:07;;;;;;;1.73;0.60;;;;;;;-2.58;64.58;101001.44;4924439;28;97028;-51
2021/12/25 06:52:32;;;;;;;1.03;0.50;;;;;;;-2.58;64.90;100999.53;4922536;28;97540;-51
2021/12/25 06:54:58;;;;;;;0.50;0.50;;;;;;;-2.59;64.55;101007.97;4923648;28;97341;-51
2021/12/25 06:57:23;;;;;;;0.50;0.40;;;;;;;-2.60;64.55;101009.16;4923974;28;97153;-51
2021/12/25 06:59:48;;;;;;;0.57;0.50;;;;;;;-2.61;64.48;101013.00;4923164;28;110918;-51
2021/12/25 07:02:14;;;;;;;1.33;0.70;;;;;;;-2.64;64.47;101013.78;4920653;28;97090;-52
2021/12/25 07:04:39;;;;;;;0.80;0.60;;;;;;;-2.63;64.46;101024.16;4923941;28;98815;-52
2021/12/25 07:07:04;;;;;;;0.90;0.60;;;;;;;-2.62;64.55;101027.63;4921395;28;96951;-52
2021/12/25 07:09:30;;;;;;;1.00;0.70;;;;;;;-2.61;64.34;101021.06;4920970;28;105473;-53
2021/12/25 07:11:56;;;;;;;0.60;0.60;;;;;;;-2.63;64.58;101023.41;4923400;28;104083;-52
2021/12/25 07:14:22;;;;;;;0.90;0.50;;;;;;;-2.59;64.31;101021.44;4921397;28;97350;-51
2021/12/25 07:16:47;;;;;;;0.80;0.50;;;;;;;-2.61;64.39;101021.84;4922957;28;97108;-49
2021/12/25 07:19:15;;;;;;;0.47;0.43;;;;;;;-2.60;64.50;101020.66;4923401;28;98058;-51
2021/12/25 07:21:41;;;;;;;1.10;0.60;;;;;;;-2.63;64.07;101029.56;4921349;28;98554;-52
2021/12/25 07:24:08;;;;;;;0.40;0.37;;;;;;;-2.66;63.94;101029.56;4924752;28;98449;-51
2021/12/25 07:26:34;;;;;;;1.33;0.50;;;;;;;-2.69;64.05;101036.50;4922377;28;96865;-51
2021/12/25 07:28:59;;;;;;;0.50;0.40;;;;;;;-2.71;64.20;101038.81;4924444;28;96895;-50
2021/12/25 07:31:24;;;;;;;0.57;0.40;;;;;;;-2.73;64.28;101041.13;4920462;28;126493;-51
2021/12/25 07:33:50;;;;;;;6.20;0.40;;;;;;;-2.73;64.12;101041.13;4921762;28;96900;-51
2021/12/25 07:36:15;;;;;;;6.80;0.40;;;;;;;-2.80;64.02;101043.09;4923109;28;96889;-52
2021/12/25 07:38:41;;;;;;;3.27;0.87;;;;;;;-2.82;64.13;101048.88;4922466;28;96869;-51
2021/12/25 07:41:06;;;;;;;0.40;0.33;;;;;;;-2.81;64.41;101055.00;4922569;28;97082;-52
2021/12/25 07:43:32;;;;;;;0.40;0.40;;;;;;;-2.80;64.40;101059.25;4924818;28;97241;-49
2021/12/25 07:45:57;;;;;;;4.70;0.60;;;;;;;-2.82;64.25;101064.25;4922496;28;97338;-51
2021/12/25 07:48:25;;;;;;;0.50;0.40;;;;;;;-2.82;64.38;101075.03;4926934;28;97084;-52
2021/12/25 07:50:51;;;;;;;1.07;0.40;;;;;;;-2.80;64.40;101067.31;4923208;28;98774;-52
2021/12/25 07:53:16;;;;;;;0.50;0.40;;;;;;;-2.79;64.19;101072.31;4922835;28;97235;-50
2021/12/25 07:55:43;;;;;;;0.60;0.40;;;;;;;-2.82;64.14;101070.41;4922753;28;97045;-51
2021/12/25 07:58:09;;;;;;;1.67;0.70;;;;;;;-2.85;64.27;101087.34;4920500;28;96850;-51
2021/12/25 08:00:34;;;;;;;0.60;0.50;;;;;;;-2.84;64.37;101078.09;4922825;28;97998;-52
2021/12/25 08:03:00;;;;;;;1.33;0.50;;;;;;;-2.80;64.32;101081.56;4922021;28;96885;-49
2021/12/25 08:05:25;;;;;;;0.70;0.60;;;;;;;-2.80;64.32;101078.88;4920535;28;96997;-51
2021/12/25 08:07:50;;;;;;;1.10;0.57;;;;;;;-2.80;64.10;101080.78;4923459;28;102420;-54
2021/12/25 08:10:19;;;;;;;1.53;0.40;;;;;;;-2.83;64.03;101086.94;4922281;28;97670;-51
2021/12/25 08:12:51;;;;;;;4.00;0.40;;;;;;;-2.85;64.27;101083.88;4921214;28;97398;-52
2021/12/25 08:15:20;;;;;;;0.40;0.40;;;;;;;-2.87;64.32;101081.56;4922974;28;96986;-52
2021/12/25 08:17:46;;;;;;;0.50;0.50;;;;;;;-2.90;64.27;101092.34;4920174;28;96875;-52
2021/12/25 08:20:12;;;;;;;0.70;0.40;;;;;;;-2.95;64.42;101088.16;4919727;28;97673;-51
2021/12/25 08:22:38;;;;;;;1.30;0.53;;;;;;;-2.90;64.64;101098.50;4923691;28;96964;-52
2021/12/25 08:25:04;;;;;;;3.60;0.60;;;;;;;-2.86;64.50;101095.81;4921704;28;96796;-51
2021/12/25 08:27:30;;;;;;;1.33;0.40;;;;;;;-2.87;64.45;101094.25;4920328;28;96967;-51
2021/12/25 08:29:56;;;;;;;0.60;0.50;;;;;;;-2.93;64.42;101104.69;4921802;28;97891;-51
2021/12/25 08:32:21;;;;;;;0.60;0.60;;;;;;;-2.93;64.28;101106.59;4918235;28;97332;-48
2021/12/25 08:34:47;;;;;;;0.93;0.57;;;;;;;-2.94;64.45;101116.59;4918276;28;96769;-52
2021/12/25 08:37:13;;;;;;;0.73;0.50;;;;;;;-2.98;64.25;101120.44;4921850;28;96987;-52
2021/12/25 08:39:39;;;;;;;0.90;0.53;;;;;;;-3.01;64.65;101126.63;4922269;28;97193;-52
2021/12/25 08:42:05;;;;;;;0.50;0.40;;;;;;;-2.98;64.94;101118.53;4922063;28;97201;-51
2021/12/25 08:44:53;;;;;;;0.40;0.40;;;;;;;-2.92;64.82;101118.88;4919455;28;97160;-52
2021/12/25 08:47:20;;;;;;;0.50;0.40;;;;;;;-2.89;64.72;101123.50;4902416;28;96686;-52
2021/12/25 08:49:47;;;;;;;0.40;0.30;;;;;;;-2.88;64.31;101125.03;4919535;28;97068;-52
2021/12/25 08:52:16;;;;;;;0.40;0.40;;;;;;;-2.86;64.75;101125.41;4899075;28;96925;-52
2021/12/25 08:54:42;;;;;;;0.40;0.30;;;;;;;-2.84;64.72;101118.47;4896934;28;96876;-51
2021/12/25 08:57:10;;;;;;;0.40;0.40;;;;;;;-2.82;64.63;101126.19;4914010;28;97399;-53
2021/12/25 08:59:37;;;;;;;0.70;0.57;;;;;;;-2.80;64.85;101127.31;4917281;28;96943;-53
2021/12/25 09:02:07;;;;;;;0.87;0.40;;;;;;;-2.79;64.79;101130.75;4919989;28;97304;-49
2021/12/25 09:04:34;;;;;;;2.70;0.40;;;;;;;-2.76;64.87;101132.69;4920087;28;97165;-49
2021/12/25 09:07:00;;;;;;;0.87;0.37;;;;;;;-2.69;65.08;101127.28;4920415;28;97165;-49
2021/12/25 09:09:25;;;;;;;0.50;0.30;;;;;;;-2.62;65.03;101130.72;4922936;28;97021;-49
2021/12/25 09:11:50;;;;;;;0.47;0.40;;;;;;;-2.56;64.77;101139.16;4921723;28;111978;-50
2021/12/25 09:14:15;;;;;;;0.60;0.40;;;;;;;-2.54;64.64;101134.16;4918789;28;97544;-51
2021/12/25 09:16:41;;;;;;;0.60;0.40;;;;;;;-2.48;65.04;101146.81;4919262;28;113004;-50
2021/12/25 09:19:06;;;;;;;2.50;0.30;;;;;;;-2.43;64.94;101151.03;4918346;28;99182;-51
2021/12/25 09:21:32;;;;;;;0.40;0.30;;;;;;;-2.38;64.79;101153.34;4919095;28;97692;-50
2021/12/25 09:23:58;;;;;;;1.90;0.30;;;;;;;-2.34;64.76;101154.81;4920074;28;96774;-48
2021/12/25 09:26:24;;;;;;;0.90;0.30;;;;;;;-2.32;64.63;101163.31;4918175;28;97954;-49
2021/12/25 09:28:49;;;;;;;0.70;0.40;;;;;;;-2.24;64.87;101161.34;4919029;28;97216;-49
2021/12/25 09:31:15;;;;;;;2.20;0.60;;;;;;;-2.22;64.77;101164.41;4917942;28;97216;-53
2021/12/25 09:33:41;;;;;;;0.50;0.40;;;;;;;-2.19;64.73;101163.63;4917974;28;97241;-52
2021/12/25 09:36:06;;;;;;;0.40;0.30;;;;;;;-2.13;65.02;101159.34;4921448;28;96840;-49
2021/12/25 09:38:33;;;;;;;0.40;0.40;;;;;;;-2.07;64.95;101157.78;4918954;28;103408;-50
2021/12/25 09:40:58;;;;;;;0.40;0.30;;;;;;;-2.00;65.13;101162.38;4921035;28;97941;-50
2021/12/25 09:43:25;;;;;;;2.10;0.40;;;;;;;-1.95;64.87;101168.13;4922098;28;97282;-50
2021/12/25 09:45:50;;;;;;;0.40;0.40;;;;;;;-1.89;65.05;101161.16;4919998;28;97091;-50
2021/12/25 09:48:16;;;;;;;0.40;0.30;;;;;;;-1.81;65.11;101169.94;4916823;28;97572;-50
2021/12/25 09:50:41;;;;;;;0.70;0.33;;;;;;;-1.76;65.09;101159.53;4920562;28;98429;-49
2021/12/25 09:53:09;;;;;;;1.63;0.50;;;;;;;-1.69;65.00;101159.47;4919882;28;97488;-49
2021/12/25 09:55:35;;;;;;;0.90;0.37;;;;;;;-1.62;65.04;101155.97;4923534;28;96741;-52
2021/12/25 09:58:01;;;;;;;0.47;0.33;;;;;;;-1.62;64.83;101164.81;4919434;28;97274;-50
2021/12/25 10:00:27;;;;;;;0.50;0.40;;;;;;;-1.59;64.68;101161.31;4923269;28;99990;-49
2021/12/25 10:02:55;;;;;;;0.73;0.40;;;;;;;-1.55;64.65;101155.91;4923165;28;97151;-49
2021/12/25 10:05:30;;;;;;;0.90;0.40;;;;;;;-1.47;64.92;101162.00;4922074;28;98421;-50
2021/12/25 10:08:11;;;;;;;0.57;0.50;;;;;;;-1.41;65.17;101163.13;4921969;28;96943;-49
2021/12/25 10:10:40;;;;;;;0.67;0.50;;;;;;;-1.32;64.88;101152.63;4922009;28;100317;-53
2021/12/25 10:13:21;;;;;;;0.40;0.30;;;;;;;-1.21;64.83;101153.31;4923114;28;97171;-50
2021/12/25 10:15:48;;;;;;;1.53;0.60;;;;;;;-1.23;64.38;101151.03;4923957;28;97118;-53
2021/12/25 10:18:14;;;;;;;0.43;0.40;;;;;;;-1.21;64.71;101164.09;4921576;28;98253;-50
2021/12/25 10:20:39;;;;;;;0.60;0.50;;;;;;;-1.19;64.71;101175.28;4921894;28;96921;-50
2021/12/25 10:23:13;;;;;;;1.97;0.40;;;;;;;-1.20;64.79;101168.34;4922734;28;96949;-49
2021/12/25 10:26:01;;;;;;;0.63;0.40;;;;;;;-1.20;64.58;101169.09;4922144;28;96933;-51
2021/12/25 10:28:36;;;;;;;0.57;0.40;;;;;;;-1.14;65.09;101164.06;4910799;28;100572;-49
2021/12/25 10:31:08;;;;;;;0.50;0.40;;;;;;;-1.06;65.22;101157.41;4905432;28;98045;-52
2021/12/25 10:33:42;;;;;;;0.40;0.40;;;;;;;-1.00;64.90;101153.88;4904566;28;97320;-49
2021/12/25 10:36:30;;;;;;;1.93;0.60;;;;;;;-0.95;64.90;101144.56;4903270;28;97213;-52
2021/12/25 10:39:28;;;;;;;0.60;0.50;;;;;;;-0.90;64.88;101153.03;4892731;28;101268;-49
2021/12/25 10:42:02;;;;;;;3.83;0.60;;;;;;;-0.86;64.66;101159.16;4905817;28;100314;-49
2021/12/25 10:44:32;;;;;;;0.57;0.40;;;;;;;-0.85;64.53;101159.91;4914641;28;96701;-52
2021/12/25 10:47:04;;;;;;;2.20;0.60;;;;;;;-0.83;64.61;101161.03;4898991;28;97321;-50
2021/12/25 10:49:42;;;;;;;1.17;0.40;;;;;;;-0.80;64.45;101160.22;4906423;28;97674;-49
2021/12/25 10:52:12;;;;;;;0.77;0.70;;;;;;;-0.76;64.86;101155.56;4887804;28;98383;-50
2021/12/25 10:54:47;;;;;;;1.50;0.50;;;;;;;-0.75;64.50;101156.34;4882784;28;97504;-50
2021/12/25 10:57:32;;;;;;;0.50;0.50;;;;;;;-0.66;64.92;101153.91;4923156;28;97111;-50
2021/12/25 10:59:58;;;;;;;0.60;0.40;;;;;;;-0.63;64.65;101150.41;4920966;28;101735;-49
2021/12/25 11:02:33;;;;;;;1.27;0.60;;;;;;;-0.57;64.71;101139.94;4922808;28;97385;-53
2021/12/25 11:04:59;;;;;;;0.47;0.47;;;;;;;-0.51;64.65;101122.88;4919483;28;97036;-49
2021/12/25 11:07:25;;;;;;;0.70;0.40;;;;;;;-0.47;64.70;101139.03;4909465;28;97151;-52
2021/12/25 11:10:18;;;;;;;3.50;0.60;;;;;;;-0.43;64.39;101127.00;4899847;28;97075;-49
2021/12/25 11:12:44;;;;;;;0.70;0.50;;;;;;;-0.42;64.60;101136.66;4908697;28;100200;-49
2021/12/25 11:15:12;;;;;;;0.60;0.43;;;;;;;-0.39;64.74;101137.75;4898705;28;97022;-50
2021/12/25 11:17:39;;;;;;;0.87;0.57;;;;;;;-0.31;64.88;101142.69;4908367;28;96962;-53
2021/12/25 11:20:05;;;;;;;0.70;0.67;;;;;;;-0.23;64.79;101144.13;4912815;28;97264;-49
2021/12/25 11:22:46;;;;;;;0.70;0.70;;;;;;;-0.20;64.23;101137.88;4921599;28;97254;-53
2021/12/25 11:25:12;;;;;;;0.50;0.50;;;;;;;-0.14;64.64;101135.50;4923605;28;97239;-49
2021/12/25 11:27:37;;;;;;;0.87;0.40;;;;;;;-0.07;64.96;101133.47;4923184;28;97423;-50
2021/12/25 11:30:05;;;;;;;1.97;0.70;;;;;;;-0.04;64.75;101127.25;4919886;28;125288;-50
2021/12/25 11:32:31;;;;;;;1.37;0.63;;;;;;;0.01;64.49;101131.44;4919344;28;96969;-49
2021/12/25 11:34:58;;;;;;;0.70;0.70;;;;;;;0.05;64.67;101131.38;4920238;28;102716;-51
2021/12/25 11:37:25;;;;;;;0.50;0.50;;;;;;;0.05;64.13;101132.16;4923417;28;103538;-49
2021/12/25 11:39:53;;;;;;;3.67;0.60;;;;;;;0.11;64.74;101125.09;4920224;28;100735;-51
2021/12/25 11:42:20;;;;;;;0.50;0.50;;;;;;;0.18;64.65;101129.63;4921235;28;97322;-52
2021/12/25 11:44:52;;;;;;;1.90;0.53;;;;;;;0.23;64.61;101134.59;4921321;28;96937;-50
2021/12/25 11:47:32;;;;;;;2.00;0.57;;;;;;;0.33;64.62;101137.13;4913254;28;97166;-50
2021/12/25 11:50:00;;;;;;;1.43;0.40;;;;;;;0.41;64.81;101141.28;4907999;28;97969;-50
2021/12/25 11:52:30;;;;;;;1.80;0.50;;;;;;;0.42;64.18;101139.31;4904869;28;97661;-50
2021/12/25 11:55:24;;;;;;;0.60;0.50;;;;;;;0.50;64.12;101121.81;4906435;28;97205;-49
2021/12/25 11:58:03;;;;;;;1.37;0.47;;;;;;;0.62;64.93;101127.38;4915098;28;96981;-49
2021/12/25 12:00:37;;;;;;;6.80;0.60;;;;;;;0.71;64.32;101121.44;4905907;28;97134;-50
2021/12/25 12:03:05;;;;;;;0.50;0.40;;;;;;;0.73;63.94;101129.91;4896176;28;97284;-50
2021/12/25 12:05:32;;;;;;;1.47;0.70;;;;;;;0.69;64.05;101134.63;4901388;28;96934;-49
2021/12/25 12:08:06;;;;;;;0.70;0.50;;;;;;;0.67;64.35;101131.56;4902829;28;97155;-51
2021/12/25 12:10:44;;;;;;;2.60;0.47;;;;;;;0.70;63.75;101117.19;4898686;28;98803;-49
2021/12/25 12:13:24;;;;;;;0.60;0.50;;;;;;;0.70;63.89;101119.91;4901852;28;97670;-49
2021/12/25 12:15:52;;;;;;;0.80;0.40;;;;;;;0.71;64.27;101113.31;4901060;28;96942;-49
2021/12/25 12:18:23;;;;;;;0.50;0.40;;;;;;;0.75;64.49;101117.50;4899325;28;97302;-48
2021/12/25 12:20:48;;;;;;;0.70;0.40;;;;;;;0.76;64.17;101124.44;4906389;28;105264;-50
2021/12/25 12:23:49;;;;;;;1.00;0.83;;;;;;;0.80;63.79;101118.97;4900534;28;98551;-49
2021/12/25 12:26:50;;;;;;;3.73;0.73;;;;;;;0.81;63.60;101114.31;4922562;28;97207;-49
2021/12/25 12:29:38;;;;;;;1.23;0.40;;;;;;;0.76;63.64;101110.16;4915881;28;96930;-49
2021/12/25 12:32:36;;;;;;;2.93;0.60;;;;;;;0.74;63.81;101123.34;4899147;28;102026;-50
2021/12/25 12:35:23;;;;;;;0.80;0.40;;;;;;;0.75;64.39;101119.44;4895969;28;102793;-51
2021/12/25 12:37:48;;;;;;;0.47;0.40;;;;;;;0.85;64.30;101110.38;4904820;28;97080;-52
2021/12/25 12:40:20;;;;;;;0.80;0.67;;;;;;;0.88;63.90;101104.09;4902216;28;98220;-51
2021/12/25 12:42:47;;;;;;;0.47;0.47;;;;;;;0.85;63.51;101110.38;4907306;28;96914;-49